createdAt,value
2023-05-12T00:00:49.635Z,4.85
2023-05-12T00:04:51.739Z,4.68
2023-05-12T00:08:53.780Z,4.50
2023-05-12T00:12:55.866Z,4.63
2023-05-12T00:16:57.975Z,4.45
2023-05-12T00:21:00.173Z,4.53
2023-05-12T00:25:02.190Z,4.45
2023-05-12T00:29:04.202Z,4.82
2023-05-12T00:33:06.670Z,4.07
2023-05-12T00:37:08.838Z,4.47
2023-05-12T00:41:11.060Z,3.97
2023-05-12T00:45:13.201Z,4.45
2023-05-12T00:49:15.425Z,4.30
2023-05-12T00:53:17.507Z,4.55
2023-05-12T00:57:21.790Z,4.15
2023-05-12T01:01:23.986Z,3.50
2023-05-12T01:05:45.366Z,4.50
2023-05-12T01:09:47.513Z,4.38
2023-05-12T01:13:50.045Z,4.50
2023-05-12T01:17:57.554Z,3.42
2023-05-12T01:22:00.384Z,3.95
2023-05-12T01:26:09.902Z,4.55
2023-05-12T01:30:18.029Z,4.68
2023-05-12T01:34:20.470Z,4.03
2023-05-12T01:38:26.585Z,4.60
2023-05-12T01:42:28.628Z,4.28
2023-05-12T01:46:30.888Z,3.90
2023-05-12T01:50:35.049Z,4.20
2023-05-12T01:54:39.839Z,4.38
2023-05-12T01:58:41.821Z,4.20
2023-05-12T02:02:44.448Z,4.10
2023-05-12T02:06:48.091Z,4.47
2023-05-12T02:10:50.204Z,4.00
2023-05-12T02:14:52.368Z,3.58
2023-05-12T02:18:54.680Z,3.92
2023-05-12T02:22:57.002Z,4.35
2023-05-12T02:26:59.053Z,4.40
2023-05-12T02:31:01.117Z,4.45
2023-05-12T02:35:05.363Z,4.25
2023-05-12T02:39:08.021Z,4.18
2023-05-12T02:43:11.135Z,4.07
2023-05-12T02:47:13.214Z,4.18
2023-05-12T02:51:15.523Z,4.45
2023-05-12T02:55:17.692Z,4.60
2023-05-12T02:59:19.728Z,4.75
2023-05-12T03:03:21.819Z,4.28
2023-05-12T03:07:23.992Z,4.40
2023-05-12T03:11:26.337Z,4.32
2023-05-12T03:15:28.958Z,3.72
2023-05-12T03:19:31.343Z,3.97
2023-05-12T03:23:33.385Z,3.53
2023-05-12T03:27:36.056Z,3.92
2023-05-12T03:31:38.220Z,4.25
2023-05-12T03:35:40.226Z,4.32
2023-05-12T03:39:42.317Z,4.88
2023-05-12T03:43:44.866Z,4.38
2023-05-12T03:47:47.692Z,3.92
2023-05-12T03:51:49.758Z,4.53
2023-05-12T03:55:53.896Z,4.63
2023-05-12T03:59:56.057Z,3.90
2023-05-12T04:03:58.267Z,4.15
2023-05-12T04:07:59.972Z,3.60
2023-05-12T04:12:01.945Z,3.80
2023-05-12T04:16:04.569Z,3.83
2023-05-12T04:20:07.758Z,3.97
2023-05-12T04:24:10.563Z,4.20
2023-05-12T04:28:13.652Z,4.10
2023-05-12T04:32:16.240Z,4.63
2023-05-12T04:36:18.645Z,3.53
2023-05-12T04:40:21.292Z,3.95
2023-05-12T04:44:23.643Z,4.43
2023-05-12T04:48:27.063Z,4.20
2023-05-12T04:52:29.158Z,4.78
2023-05-12T04:56:31.509Z,3.88
2023-05-12T05:00:34.322Z,4.35
2023-05-12T05:04:36.524Z,3.88
2023-05-12T05:08:38.895Z,4.82
2023-05-12T05:12:41.052Z,3.67
2023-05-12T05:16:44.244Z,3.58
2023-05-12T05:20:54.419Z,3.88
2023-05-12T05:25:00.245Z,3.65
2023-05-12T05:29:02.554Z,3.70
2023-05-12T05:33:04.482Z,3.72
2023-05-12T05:37:06.680Z,3.38
2023-05-12T05:41:09.837Z,4.03
2023-05-12T05:45:12.016Z,3.30
2023-05-12T05:49:14.646Z,4.10
2023-05-12T05:53:18.449Z,3.47
2023-05-12T05:57:21.330Z,3.83
2023-05-12T06:01:24.122Z,3.30
2023-05-12T06:05:26.357Z,3.50
2023-05-12T06:09:28.471Z,3.45
2023-05-12T06:13:30.633Z,3.22
2023-05-12T06:17:32.935Z,3.45
2023-05-12T06:21:34.989Z,3.38
2023-05-12T06:25:36.952Z,2.97
2023-05-12T06:29:39.112Z,3.00
2023-05-12T06:33:41.126Z,2.63
2023-05-12T06:37:49.310Z,3.25
2023-05-12T06:41:51.365Z,2.75
2023-05-12T06:45:57.033Z,2.78
2023-05-12T06:49:59.196Z,3.22
2023-05-12T06:54:02.170Z,3.38
2023-05-12T06:58:06.304Z,2.90
2023-05-12T07:02:08.305Z,2.63
2023-05-12T07:06:11.131Z,2.58
2023-05-12T07:10:13.232Z,3.13
2023-05-12T07:14:15.200Z,2.25
2023-05-12T07:18:17.345Z,2.70
2023-05-12T07:22:22.401Z,2.78
2023-05-12T07:26:24.442Z,2.33
2023-05-12T07:30:26.111Z,2.97
2023-05-12T07:34:28.119Z,2.55
2023-05-12T07:38:30.318Z,2.50
2023-05-12T07:42:31.988Z,2.58
2023-05-12T07:46:33.998Z,2.97
2023-05-12T07:50:36.072Z,3.17
2023-05-12T07:54:38.288Z,2.63
2023-05-12T07:58:40.338Z,2.45
2023-05-12T08:02:43.307Z,2.92
2023-05-12T08:06:45.459Z,2.58
2023-05-12T08:10:47.473Z,3.35
2023-05-12T08:14:49.545Z,2.33
2023-05-12T08:18:52.265Z,2.38
2023-05-12T08:22:54.431Z,2.45
2023-05-12T08:26:56.481Z,2.65
2023-05-12T08:30:59.021Z,2.50
2023-05-12T08:35:01.594Z,2.40
2023-05-12T08:39:04.283Z,2.05
2023-05-12T08:43:30.135Z,2.38
2023-05-12T08:47:34.221Z,2.53
2023-05-12T08:51:38.037Z,2.40
2023-05-12T08:55:46.210Z,2.40
2023-05-12T08:59:59.190Z,2.30
2023-05-12T09:04:01.262Z,2.90
2023-05-12T09:08:03.535Z,2.45
2023-05-12T09:12:10.248Z,2.80
2023-05-12T09:16:13.562Z,2.15
2023-05-12T09:20:27.949Z,3.10
2023-05-12T09:24:37.709Z,2.70
2023-05-12T09:28:39.759Z,2.63
2023-05-12T09:32:42.283Z,2.53
2023-05-12T09:36:46.130Z,2.22
2023-05-12T09:40:48.106Z,1.75
2023-05-12T09:44:50.376Z,2.30
2023-05-12T09:48:55.759Z,2.28
2023-05-12T09:53:01.363Z,2.45
2023-05-12T09:57:07.540Z,2.22
2023-05-12T10:01:23.174Z,2.33
2023-05-12T10:05:26.476Z,2.58
2023-05-12T10:09:39.246Z,2.90
2023-05-12T10:13:41.808Z,2.42
2023-05-12T10:17:44.419Z,2.45
2023-05-12T10:21:46.993Z,2.75
2023-05-12T10:25:49.610Z,2.33
2023-05-12T10:29:53.621Z,2.72
2023-05-12T10:33:59.583Z,2.58
2023-05-12T10:38:06.130Z,2.10
2023-05-12T10:42:09.699Z,2.25
2023-05-12T10:46:22.640Z,2.55
2023-05-12T10:50:28.479Z,3.08
2023-05-12T10:54:39.597Z,2.40
2023-05-12T10:59:21.658Z,2.45
2023-05-12T11:03:25.747Z,2.67
2023-05-12T11:07:30.835Z,2.35
2023-05-12T11:11:34.233Z,2.30
2023-05-12T11:15:36.493Z,2.08
2023-05-12T11:19:39.568Z,2.92
2023-05-12T11:23:41.736Z,2.45
2023-05-12T11:27:51.523Z,2.60
2023-05-12T11:31:53.526Z,2.00
2023-05-12T11:35:55.808Z,2.30
2023-05-12T11:39:57.896Z,2.70
2023-05-12T11:43:59.991Z,2.05
2023-05-12T11:48:13.856Z,2.58
2023-05-12T11:52:17.451Z,2.33
2023-05-12T11:56:21.951Z,2.53
2023-05-12T12:00:28.873Z,2.47
2023-05-12T12:04:41.952Z,2.05
2023-05-12T12:09:10.122Z,2.63
2023-05-12T12:13:13.492Z,2.15
2023-05-12T12:17:15.572Z,2.15
2023-05-12T12:21:19.025Z,2.63
2023-05-12T12:25:22.206Z,2.30
2023-05-12T12:29:26.166Z,2.70
2023-05-12T12:33:28.169Z,2.35
2023-05-12T12:37:30.260Z,2.67
2023-05-12T12:41:32.706Z,2.50
2023-05-12T12:45:34.757Z,3.13
2023-05-12T12:49:36.846Z,2.30
2023-05-12T12:53:38.968Z,2.95
2023-05-12T12:57:40.959Z,2.40
2023-05-12T13:01:43.657Z,2.53
2023-05-12T13:05:45.737Z,2.45
2023-05-12T13:09:47.822Z,2.45
2023-05-12T13:13:49.998Z,2.42
2023-05-12T13:17:52.309Z,2.45
2023-05-12T13:21:54.366Z,2.40
2023-05-12T13:25:56.974Z,2.55
2023-05-12T13:29:58.999Z,2.00
2023-05-12T13:34:01.025Z,2.47
2023-05-12T13:38:03.117Z,3.08
2023-05-12T13:42:05.567Z,2.63
2023-05-12T13:46:08.330Z,2.50
2023-05-12T13:50:10.564Z,2.28
2023-05-12T13:54:12.858Z,2.50
2023-05-12T13:58:14.900Z,2.67
2023-05-12T14:02:16.895Z,2.20
2023-05-12T14:06:18.902Z,1.95
2023-05-12T14:10:20.919Z,1.98
2023-05-12T14:14:22.957Z,2.17
2023-05-12T14:18:25.865Z,2.35
2023-05-12T14:22:28.009Z,2.40
2023-05-12T14:26:30.180Z,2.13
2023-05-12T14:30:35.003Z,2.35
2023-05-12T14:34:37.076Z,2.15
2023-05-12T14:38:39.166Z,2.20
2023-05-12T14:42:42.278Z,2.00
2023-05-12T14:46:44.315Z,2.00
2023-05-12T14:50:46.283Z,2.17
2023-05-12T14:54:48.356Z,1.83
2023-05-12T14:58:50.436Z,2.22
2023-05-12T15:02:52.708Z,2.30
2023-05-12T15:06:54.791Z,2.55
2023-05-12T15:10:56.734Z,2.30
2023-05-12T15:15:04.128Z,2.13
2023-05-12T15:19:06.314Z,2.25
2023-05-12T15:23:08.338Z,2.13
2023-05-12T15:27:10.314Z,2.05
2023-05-12T15:31:12.516Z,2.22
2023-05-12T15:35:14.658Z,2.08
2023-05-12T15:39:17.039Z,2.05
2023-05-12T15:43:19.185Z,2.30
2023-05-12T15:47:21.205Z,3.50
2023-05-12T15:51:23.216Z,2.15
2023-05-12T15:55:25.449Z,2.20
2023-05-12T15:59:27.431Z,2.40
2023-05-12T16:03:29.653Z,2.13
2023-05-12T16:07:31.869Z,2.60
2023-05-12T16:11:34.374Z,2.10
2023-05-12T16:15:36.408Z,2.42
2023-05-12T16:19:38.525Z,2.78
2023-05-12T16:23:40.663Z,2.95
2023-05-12T16:27:42.652Z,2.30
2023-05-12T16:31:45.236Z,2.10
2023-05-12T16:35:47.480Z,2.22
2023-05-12T16:39:49.516Z,2.17
2023-05-12T16:43:53.336Z,2.10
2023-05-12T16:47:55.370Z,2.47
2023-05-12T16:51:57.419Z,2.20
2023-05-12T16:55:59.767Z,2.67
2023-05-12T17:00:05.480Z,2.55
2023-05-12T17:04:08.082Z,2.00
2023-05-12T17:08:10.376Z,2.17
2023-05-12T17:12:14.175Z,2.70
2023-05-12T17:16:16.640Z,2.47
2023-05-12T17:20:19.317Z,2.63
2023-05-12T17:24:21.795Z,2.80
2023-05-12T17:28:23.803Z,2.80
2023-05-12T17:32:27.036Z,2.00
2023-05-12T17:36:29.443Z,2.53
2023-05-12T17:40:31.536Z,2.70
2023-05-12T17:44:33.614Z,2.67
2023-05-12T17:48:35.686Z,2.72
2023-05-12T17:52:39.092Z,2.30
2023-05-12T17:56:41.302Z,2.53
2023-05-12T18:00:43.505Z,2.80
2023-05-12T18:04:46.142Z,3.08
2023-05-12T18:08:48.219Z,2.90
2023-05-12T18:12:51.338Z,3.53
2023-05-12T18:16:53.522Z,2.70
2023-05-12T18:20:55.921Z,3.28
2023-05-12T18:24:57.943Z,2.67
2023-05-12T18:29:02.585Z,2.67
2023-05-12T18:33:05.221Z,2.72
2023-05-12T18:37:07.554Z,3.22
2023-05-12T18:41:10.020Z,3.03
2023-05-12T18:45:12.306Z,2.80
2023-05-12T18:49:14.591Z,3.17
2023-05-12T18:53:16.660Z,3.40
2023-05-12T18:57:18.956Z,3.00
2023-05-12T19:01:21.246Z,4.15
2023-05-12T19:05:23.638Z,4.00
2023-05-12T19:09:26.093Z,3.67
2023-05-12T19:13:28.233Z,3.45
2023-05-12T19:17:30.456Z,4.18
2023-05-12T19:21:33.634Z,6.05
2023-05-12T19:25:35.753Z,11.75
2023-05-12T19:29:38.304Z,9.27
2023-05-12T19:33:40.781Z,8.65
2023-05-12T19:37:43.266Z,8.73
2023-05-12T19:41:45.486Z,9.60
2023-05-12T19:45:47.759Z,10.07
2023-05-12T19:49:50.171Z,9.38
2023-05-12T19:53:52.215Z,10.35
2023-05-12T19:57:54.354Z,13.73
2023-05-12T20:01:56.543Z,13.30
2023-05-12T20:05:58.938Z,17.10
2023-05-12T20:10:01.341Z,19.20
2023-05-12T20:14:03.394Z,16.27
2023-05-12T20:18:06.053Z,15.13
2023-05-12T20:22:08.225Z,16.65
2023-05-12T20:26:10.717Z,17.20
2023-05-12T20:30:13.038Z,14.88
2023-05-12T20:34:16.014Z,11.82
2023-05-12T20:38:18.212Z,10.65
2023-05-12T20:42:20.545Z,9.30
2023-05-12T20:46:23.098Z,13.95
2023-05-12T20:50:27.315Z,17.15
2023-05-12T20:54:29.578Z,15.68
2023-05-12T20:58:31.836Z,16.02
2023-05-12T21:02:33.927Z,11.60
2023-05-12T21:06:37.102Z,11.38
2023-05-12T21:10:40.083Z,16.45
2023-05-12T21:14:43.333Z,20.80
2023-05-12T21:18:45.630Z,15.65
2023-05-12T21:22:47.876Z,14.13
2023-05-12T21:26:50.036Z,10.88
2023-05-12T21:30:52.187Z,9.77
2023-05-12T21:34:54.574Z,9.90
2023-05-12T21:38:56.676Z,16.10
2023-05-12T21:42:58.804Z,19.08
2023-05-12T21:47:01.259Z,22.10
2023-05-12T21:51:03.853Z,21.52
2023-05-12T21:55:06.589Z,18.65
2023-05-12T21:59:09.275Z,19.23
2023-05-12T22:03:11.507Z,16.75
2023-05-12T22:07:13.650Z,16.10
2023-05-12T22:11:16.425Z,14.88
2023-05-12T22:15:18.712Z,15.15
2023-05-12T22:19:20.829Z,13.50
2023-05-12T22:23:23.294Z,14.27
2023-05-12T22:27:25.344Z,12.68
2023-05-12T22:31:27.757Z,13.43
2023-05-12T22:35:29.891Z,13.48
2023-05-12T22:39:31.974Z,12.82
2023-05-12T22:43:34.053Z,12.35
2023-05-12T22:47:36.358Z,12.07
2023-05-12T22:51:38.469Z,11.07
2023-05-12T22:55:41.502Z,12.10
2023-05-12T22:59:43.986Z,11.20
2023-05-12T23:03:46.315Z,12.00
2023-05-12T23:07:48.455Z,12.90
2023-05-12T23:11:50.925Z,12.35
2023-05-12T23:15:53.119Z,13.52
2023-05-12T23:19:56.214Z,13.30
2023-05-12T23:23:58.383Z,13.40
2023-05-12T23:28:00.554Z,12.43
2023-05-12T23:32:03.476Z,12.75
2023-05-12T23:36:06.427Z,12.93
2023-05-12T23:40:09.096Z,11.73
2023-05-12T23:44:11.740Z,12.77
2023-05-12T23:48:13.894Z,11.07
2023-05-12T23:52:16.015Z,11.30
2023-05-12T23:56:17.823Z,14.25
